createdAt,value
2019-03-16T00:01:42.453Z,97448.85
2019-03-16T00:04:12.821Z,97442.49
2019-03-16T00:06:44.204Z,97431.75
2019-03-16T00:09:14.382Z,97443.70
2019-03-16T00:11:44.669Z,97443.47
2019-03-16T00:14:15.173Z,97449.03
2019-03-16T00:16:45.459Z,97455.34
2019-03-16T00:19:15.752Z,97454.89
2019-03-16T00:21:45.941Z,97451.17
2019-03-16T00:24:16.103Z,97453.08
2019-03-16T00:26:46.328Z,97460.20
2019-03-16T00:29:16.502Z,97460.49
2019-03-16T00:32:13.248Z,97461.81
2019-03-16T00:34:38.036Z,97457.59
2019-03-16T00:37:08.366Z,97462.87
2019-03-16T00:39:38.766Z,97464.25
2019-03-16T00:42:09.036Z,97473.49
2019-03-16T00:44:40.409Z,97469.81
2019-03-16T00:47:10.657Z,97484.16
2019-03-16T00:49:40.902Z,97478.14
2019-03-16T00:52:11.233Z,97474.71
2019-03-16T00:54:41.657Z,97478.09
2019-03-16T00:57:11.873Z,97477.14
2019-03-16T00:59:42.043Z,97471.19
2019-03-16T01:02:26.130Z,97474.09
2019-03-16T01:04:45.096Z,97474.72
2019-03-16T01:07:15.451Z,97472.53
2019-03-16T01:09:45.639Z,97480.86
2019-03-16T01:12:15.921Z,97478.66
2019-03-16T01:14:46.097Z,97486.98
2019-03-16T01:17:16.601Z,97479.58
2019-03-16T01:19:46.852Z,97484.14
2019-03-16T01:22:17.145Z,97485.71
2019-03-16T01:24:47.299Z,97488.95
2019-03-16T01:27:17.469Z,97488.95
2019-03-16T01:29:47.820Z,97485.77
2019-03-16T01:32:18.167Z,97488.90
2019-03-16T01:34:48.446Z,97474.59
2019-03-16T01:37:18.625Z,97483.11
2019-03-16T01:39:48.866Z,97487.63
2019-03-16T01:42:19.182Z,97485.02
2019-03-16T01:44:49.517Z,97468.47
2019-03-16T01:47:19.824Z,97479.21
2019-03-16T01:49:49.998Z,97474.41
2019-03-16T01:52:20.158Z,97469.13
2019-03-16T01:54:50.433Z,97476.27
2019-03-16T01:57:20.816Z,97477.08
2019-03-16T01:59:51.090Z,97475.99
2019-03-16T02:02:21.458Z,97475.22
2019-03-16T02:04:51.753Z,97482.12
2019-03-16T02:07:22.108Z,97471.45
2019-03-16T02:09:52.445Z,97474.45
2019-03-16T02:12:22.760Z,97484.88
2019-03-16T02:14:53.142Z,97479.70
2019-03-16T02:17:23.370Z,97473.84
2019-03-16T02:19:53.739Z,97468.47
2019-03-16T02:22:23.954Z,97469.89
2019-03-16T02:24:54.327Z,97469.61
2019-03-16T02:27:24.683Z,97466.66
2019-03-16T02:29:54.921Z,97467.19
2019-03-16T02:32:25.087Z,97461.30
2019-03-16T02:34:55.482Z,97460.18
2019-03-16T02:37:25.790Z,97457.81
2019-03-16T02:39:55.976Z,97455.11
2019-03-16T02:42:26.284Z,97462.56
2019-03-16T02:44:56.666Z,97463.38
2019-03-16T02:47:26.967Z,97461.52
2019-03-16T02:49:57.232Z,97460.41
2019-03-16T02:52:28.626Z,97466.05
2019-03-16T02:54:58.868Z,97468.45
2019-03-16T02:57:29.104Z,97469.75
2019-03-16T02:59:59.367Z,97472.17
2019-03-16T03:02:29.606Z,97469.75
2019-03-16T03:04:59.824Z,97474.59
2019-03-16T03:07:30.159Z,97486.81
2019-03-16T03:10:00.615Z,97485.02
2019-03-16T03:12:30.825Z,97492.13
2019-03-16T03:15:01.179Z,97507.13
2019-03-16T03:17:31.506Z,97502.84
2019-03-16T03:20:01.861Z,97501.52
2019-03-16T03:22:32.168Z,97509.22
2019-03-16T03:25:02.400Z,97500.64
2019-03-16T03:27:32.596Z,97508.41
2019-03-16T03:30:02.894Z,97507.64
2019-03-16T03:32:33.211Z,97513.49
2019-03-16T03:35:03.461Z,97508.45
2019-03-16T03:37:33.717Z,97510.41
2019-03-16T03:40:04.127Z,97510.41
2019-03-16T03:42:34.472Z,97518.13
2019-03-16T03:45:05.057Z,97512.84
2019-03-16T03:47:54.511Z,97516.32
2019-03-16T03:50:24.694Z,97499.53
2019-03-16T03:52:55.213Z,97509.37
2019-03-16T03:55:25.890Z,97512.03
2019-03-16T03:57:56.223Z,97505.56
2019-03-16T04:00:26.597Z,97515.41
2019-03-16T04:02:56.987Z,97505.27
2019-03-16T04:05:27.226Z,97505.84
2019-03-16T04:07:57.573Z,97508.50
2019-03-16T04:10:27.709Z,97507.08
2019-03-16T04:12:57.952Z,97509.44
2019-03-16T04:15:28.176Z,97498.78
2019-03-16T04:17:58.440Z,97504.40
2019-03-16T04:20:28.753Z,97502.27
2019-03-16T04:22:59.047Z,97497.99
2019-03-16T04:25:32.224Z,97500.19
2019-03-16T04:28:02.650Z,97509.97
2019-03-16T04:30:32.892Z,97516.33
2019-03-16T04:33:03.070Z,97509.96
2019-03-16T04:35:33.252Z,97524.84
2019-03-16T04:38:08.631Z,97517.94
2019-03-16T04:40:38.881Z,97522.45
2019-03-16T04:43:09.145Z,97519.56
2019-03-16T04:45:39.386Z,97521.08
2019-03-16T04:48:09.716Z,97523.14
2019-03-16T04:50:39.946Z,97516.45
2019-03-16T04:53:10.182Z,97530.91
2019-03-16T04:55:40.423Z,97522.93
2019-03-16T04:58:10.643Z,97514.13
2019-03-16T05:00:40.941Z,97522.86
2019-03-16T05:03:11.147Z,97528.18
2019-03-16T05:05:41.471Z,97527.06
2019-03-16T05:08:11.841Z,97525.16
2019-03-16T05:10:42.026Z,97528.92
2019-03-16T05:13:12.404Z,97531.75
2019-03-16T05:15:42.601Z,97532.05
2019-03-16T05:18:12.930Z,97535.22
2019-03-16T05:20:43.165Z,97535.68
2019-03-16T05:23:13.569Z,97535.14
2019-03-16T05:25:43.832Z,97538.04
2019-03-16T05:28:14.080Z,97543.08
2019-03-16T05:30:44.313Z,97538.50
2019-03-16T05:33:14.491Z,97546.48
2019-03-16T05:35:44.725Z,97551.55
2019-03-16T05:38:14.988Z,97549.14
2019-03-16T05:40:45.247Z,97552.39
2019-03-16T05:43:15.636Z,97550.17
2019-03-16T05:45:45.872Z,97546.70
2019-03-16T05:48:16.149Z,97548.60
2019-03-16T05:50:46.403Z,97550.45
2019-03-16T05:53:16.768Z,97553.05
2019-03-16T05:55:47.015Z,97557.34
2019-03-16T05:58:17.345Z,97558.94
2019-03-16T06:00:47.653Z,97552.53
2019-03-16T06:03:17.969Z,97557.09
2019-03-16T06:05:48.201Z,97552.77
2019-03-16T06:08:18.502Z,97549.04
2019-03-16T06:10:48.817Z,97555.10
2019-03-16T06:13:19.021Z,97558.59
2019-03-16T06:15:49.327Z,97565.23
2019-03-16T06:18:19.660Z,97566.48
2019-03-16T06:20:49.934Z,97575.55
2019-03-16T06:23:20.108Z,97567.47
2019-03-16T06:25:50.370Z,97574.12
2019-03-16T06:28:20.621Z,97580.02
2019-03-16T06:30:50.836Z,97582.84
2019-03-16T06:33:21.033Z,97587.63
2019-03-16T06:35:51.418Z,97592.64
2019-03-16T06:38:21.733Z,97588.16
2019-03-16T06:40:52.648Z,97585.26
2019-03-16T06:43:22.919Z,97598.79
2019-03-16T06:45:53.206Z,97598.29
2019-03-16T06:48:23.470Z,97603.27
2019-03-16T06:50:53.804Z,97602.55
2019-03-16T06:53:24.135Z,97604.69
2019-03-16T06:55:54.446Z,97614.97
2019-03-16T06:58:24.710Z,97617.11
2019-03-16T07:00:55.048Z,97622.78
2019-03-16T07:03:25.366Z,97623.75
2019-03-16T07:05:55.665Z,97620.73
2019-03-16T07:08:25.871Z,97618.95
2019-03-16T07:10:56.137Z,97626.97
2019-03-16T07:13:26.422Z,97634.95
2019-03-16T07:15:56.840Z,97636.05
2019-03-16T07:18:27.152Z,97629.02
2019-03-16T07:20:57.390Z,97632.19
2019-03-16T07:23:27.748Z,97630.89
2019-03-16T07:25:58.144Z,97628.97
2019-03-16T07:28:28.708Z,97631.41
2019-03-16T07:30:58.981Z,97634.88
2019-03-16T07:33:29.417Z,97644.25
2019-03-16T07:35:59.699Z,97639.52
2019-03-16T07:38:29.967Z,97645.59
2019-03-16T07:41:00.304Z,97651.48
2019-03-16T07:43:30.610Z,97641.75
2019-03-16T07:46:01.015Z,97641.67
2019-03-16T07:48:31.369Z,97642.77
2019-03-16T07:51:01.945Z,97645.52
2019-03-16T07:53:32.220Z,97643.89
2019-03-16T07:56:02.885Z,97636.99
2019-03-16T07:58:33.191Z,97649.29
2019-03-16T08:01:03.769Z,97643.16
2019-03-16T08:03:34.067Z,97640.77
2019-03-16T08:06:04.678Z,97647.94
2019-03-16T08:08:35.123Z,97652.41
2019-03-16T08:11:05.555Z,97652.92
2019-03-16T08:13:35.746Z,97656.59
2019-03-16T08:16:07.106Z,97654.77
2019-03-16T08:18:37.336Z,97664.84
2019-03-16T08:21:07.863Z,97675.92
2019-03-16T08:23:38.017Z,97673.31
2019-03-16T08:26:08.440Z,97676.95
2019-03-16T08:28:38.931Z,97675.88
2019-03-16T08:31:09.283Z,97685.45
2019-03-16T08:33:39.579Z,97687.36
2019-03-16T08:36:09.740Z,97676.71
2019-03-16T08:38:39.973Z,97691.00
2019-03-16T08:41:10.274Z,97684.11
2019-03-16T08:43:40.658Z,97687.95
2019-03-16T08:46:11.019Z,97690.11
2019-03-16T08:48:41.259Z,97695.58
2019-03-16T08:51:11.541Z,97691.89
2019-03-16T08:53:41.792Z,97690.61
2019-03-16T08:56:12.151Z,97691.64
2019-03-16T08:58:42.719Z,97686.24
2019-03-16T09:01:13.004Z,97695.12
2019-03-16T09:03:44.099Z,97692.53
2019-03-16T09:06:14.418Z,97697.20
2019-03-16T09:08:44.736Z,97682.13
2019-03-16T09:11:15.063Z,97677.80
2019-03-16T09:13:45.370Z,97683.66
2019-03-16T09:16:15.672Z,97684.47
2019-03-16T09:18:45.991Z,97679.61
2019-03-16T09:21:16.412Z,97682.81
2019-03-16T09:23:46.730Z,97676.16
2019-03-16T09:26:16.934Z,97677.03
2019-03-16T09:28:59.328Z,97664.34
2019-03-16T09:31:19.145Z,97657.61
2019-03-16T09:33:49.545Z,97670.46
2019-03-16T09:36:19.753Z,97668.03
2019-03-16T09:38:50.102Z,97655.58
2019-03-16T09:41:20.368Z,97658.08
2019-03-16T09:43:50.609Z,97670.94
2019-03-16T09:46:20.951Z,97667.70
2019-03-16T09:48:51.441Z,97658.02
2019-03-16T09:51:21.583Z,97657.91
2019-03-16T09:53:51.843Z,97652.30
2019-03-16T09:56:22.167Z,97645.45
2019-03-16T09:58:52.727Z,97645.69
2019-03-16T10:01:23.206Z,97637.69
2019-03-16T10:03:54.700Z,97644.52
2019-03-16T10:06:25.082Z,97643.75
2019-03-16T10:08:55.477Z,97643.71
2019-03-16T10:11:25.825Z,97642.89
2019-03-16T10:13:56.137Z,97641.22
2019-03-16T10:16:26.550Z,97647.80
2019-03-16T10:18:59.373Z,97652.19
2019-03-16T10:21:29.943Z,97651.88
2019-03-16T10:24:00.426Z,97643.38
2019-03-16T10:26:30.832Z,97642.05
2019-03-16T10:29:01.270Z,97645.37
2019-03-16T10:31:31.604Z,97641.14
2019-03-16T10:34:02.226Z,97642.34
2019-03-16T10:36:32.544Z,97638.12
2019-03-16T10:39:02.850Z,97625.05
2019-03-16T10:41:33.207Z,97625.13
2019-03-16T10:44:03.521Z,97627.31
2019-03-16T10:46:33.986Z,97627.82
2019-03-16T10:49:04.553Z,97615.22
2019-03-16T10:51:34.962Z,97620.81
2019-03-16T10:54:05.505Z,97623.27
2019-03-16T10:56:35.950Z,97625.28
2019-03-16T10:59:06.498Z,97618.49
2019-03-16T11:01:36.848Z,97621.66
2019-03-16T11:04:07.375Z,97625.45
2019-03-16T11:06:37.742Z,97619.02
2019-03-16T11:09:08.792Z,97609.20
2019-03-16T11:11:39.283Z,97603.50
2019-03-16T11:14:09.795Z,97608.16
2019-03-16T11:16:40.256Z,97604.08
2019-03-16T11:19:10.906Z,97607.87
2019-03-16T11:21:41.417Z,97610.08
2019-03-16T11:24:11.750Z,97592.58
2019-03-16T11:26:42.195Z,97589.74
2019-03-16T11:29:12.653Z,97582.57
2019-03-16T11:31:43.039Z,97584.45
2019-03-16T11:34:13.386Z,97583.70
2019-03-16T11:36:43.962Z,97583.70
2019-03-16T11:39:14.567Z,97584.23
2019-03-16T11:41:45.155Z,97581.52
2019-03-16T11:44:15.588Z,97570.02
2019-03-16T11:46:46.104Z,97567.19
2019-03-16T11:49:16.437Z,97565.11
2019-03-16T11:51:46.865Z,97565.16
2019-03-16T11:54:17.384Z,97562.55
2019-03-16T11:56:47.753Z,97567.91
2019-03-16T11:59:21.859Z,97567.54
2019-03-16T12:01:50.827Z,97554.69
2019-03-16T12:04:21.269Z,97557.98
2019-03-16T12:06:51.757Z,97548.36
2019-03-16T12:09:22.285Z,97546.78
2019-03-16T12:11:53.797Z,97545.09
2019-03-16T12:14:24.464Z,97555.55
2019-03-16T12:16:54.897Z,97550.97
2019-03-16T12:19:25.455Z,97546.66
2019-03-16T12:21:55.852Z,97543.83
2019-03-16T12:24:26.292Z,97532.47
2019-03-16T12:26:56.897Z,97535.14
2019-03-16T12:29:33.933Z,97528.89
2019-03-16T12:31:59.920Z,97533.20
2019-03-16T12:34:30.483Z,97516.30
2019-03-16T12:37:00.940Z,97511.69
2019-03-16T12:39:31.526Z,97511.40
2019-03-16T12:42:02.140Z,97505.62
2019-03-16T12:44:32.539Z,97515.62
2019-03-16T12:47:02.951Z,97511.56
2019-03-16T12:49:33.560Z,97498.59
2019-03-16T12:52:03.920Z,97492.28
2019-03-16T12:54:34.172Z,97490.56
2019-03-16T12:57:04.555Z,97492.63
2019-03-16T12:59:46.320Z,97485.61
2019-03-16T13:02:09.280Z,97481.77
2019-03-16T13:04:41.656Z,97475.11
2019-03-16T13:07:12.096Z,97474.34
2019-03-16T13:09:42.711Z,97475.22
2019-03-16T13:12:14.231Z,97471.89
2019-03-16T13:14:44.621Z,97470.75
2019-03-16T13:17:15.051Z,97469.30
2019-03-16T13:19:45.547Z,97465.70
2019-03-16T13:22:15.994Z,97452.75
2019-03-16T13:24:46.584Z,97453.47
2019-03-16T13:27:17.131Z,97452.73
2019-03-16T13:29:58.477Z,97448.72
2019-03-16T13:32:20.210Z,97442.39
2019-03-16T13:34:50.834Z,97433.91
2019-03-16T13:37:21.283Z,97431.27
2019-03-16T13:39:51.900Z,97434.63
2019-03-16T13:42:22.479Z,97431.48
2019-03-16T13:44:53.069Z,97433.99
2019-03-16T13:47:23.544Z,97443.47
2019-03-16T13:49:54.304Z,97430.11
2019-03-16T13:52:25.102Z,97439.63
2019-03-16T13:54:55.715Z,97440.83
2019-03-16T13:57:26.707Z,97441.37
2019-03-16T13:59:57.413Z,97438.61
2019-03-16T14:02:27.912Z,97426.13
2019-03-16T14:04:58.345Z,97426.30
2019-03-16T14:07:29.849Z,97425.73
2019-03-16T14:10:00.372Z,97432.61
2019-03-16T14:12:30.986Z,97436.73
2019-03-16T14:15:01.527Z,97417.78
2019-03-16T14:17:33.592Z,97431.47
2019-03-16T14:20:04.437Z,97425.28
2019-03-16T14:22:37.928Z,97420.16
2019-03-16T14:25:08.607Z,97424.75
2019-03-16T14:27:39.152Z,97408.36
2019-03-16T14:30:23.929Z,97418.05
2019-03-16T14:32:44.292Z,97410.70
2019-03-16T14:35:14.702Z,97398.13
2019-03-16T14:37:45.329Z,97407.07
2019-03-16T14:40:16.052Z,97399.84
2019-03-16T14:42:46.460Z,97406.36
2019-03-16T14:45:17.387Z,97402.27
2019-03-16T14:47:47.794Z,97399.88
2019-03-16T14:50:19.073Z,97408.05
2019-03-16T14:52:49.586Z,97398.33
2019-03-16T14:55:20.102Z,97393.53
2019-03-16T14:57:50.572Z,97385.78
2019-03-16T15:00:21.035Z,97380.78
2019-03-16T15:02:51.384Z,97392.55
2019-03-16T15:05:21.853Z,97386.95
2019-03-16T15:07:52.299Z,97382.69
2019-03-16T15:10:22.764Z,97370.13
2019-03-16T15:12:53.186Z,97377.31
2019-03-16T15:15:23.669Z,97372.28
2019-03-16T15:17:54.188Z,97370.45
2019-03-16T15:20:24.685Z,97360.59
2019-03-16T15:22:55.178Z,97358.20
2019-03-16T15:25:25.728Z,97356.81
2019-03-16T15:27:56.407Z,97349.06
2019-03-16T15:30:26.905Z,97341.03
2019-03-16T15:33:00.157Z,97335.70
2019-03-16T15:35:29.391Z,97342.17
2019-03-16T15:37:59.919Z,97337.91
2019-03-16T15:40:30.314Z,97330.45
2019-03-16T15:43:00.712Z,97327.52
2019-03-16T15:45:31.244Z,97322.16
2019-03-16T15:48:01.839Z,97322.44
2019-03-16T15:50:32.230Z,97317.39
2019-03-16T15:53:02.601Z,97320.03
2019-03-16T15:55:34.050Z,97316.03
2019-03-16T15:58:08.407Z,97312.56
2019-03-16T16:00:36.668Z,97304.02
2019-03-16T16:03:10.651Z,97300.02
2019-03-16T16:05:42.482Z,97296.00
2019-03-16T16:08:13.362Z,97289.32
2019-03-16T16:10:43.961Z,97289.07
2019-03-16T16:13:14.442Z,97282.39
2019-03-16T16:15:45.095Z,97284.27
2019-03-16T16:18:15.650Z,97275.50
2019-03-16T16:20:46.228Z,97269.36
2019-03-16T16:23:16.830Z,97268.30
2019-03-16T16:25:47.341Z,97262.97
2019-03-16T16:28:17.662Z,97260.02
2019-03-16T16:30:48.005Z,97254.69
2019-03-16T16:33:19.542Z,97252.84
2019-03-16T16:35:51.072Z,97251.50
2019-03-16T16:38:22.981Z,97236.55
2019-03-16T16:40:53.502Z,97240.00
2019-03-16T16:43:23.916Z,97230.11
2019-03-16T16:45:54.343Z,97227.71
2019-03-16T16:48:24.976Z,97228.24
2019-03-16T16:50:55.295Z,97223.73
2019-03-16T16:53:25.598Z,97231.20
2019-03-16T16:55:56.439Z,97228.02
2019-03-16T16:58:26.710Z,97229.09
2019-03-16T17:00:57.118Z,97220.56
2019-03-16T17:03:30.505Z,97209.91
2019-03-16T17:06:00.880Z,97216.33
2019-03-16T17:08:31.375Z,97203.25
2019-03-16T17:11:01.578Z,97209.13
2019-03-16T17:13:34.435Z,97205.86
2019-03-16T17:16:04.961Z,97201.88
2019-03-16T17:18:35.342Z,97204.51
2019-03-16T17:21:05.789Z,97204.22
2019-03-16T17:23:36.117Z,97201.07
2019-03-16T17:26:06.595Z,97195.15
2019-03-16T17:28:36.840Z,97204.15
2019-03-16T17:31:12.092Z,97189.48
2019-03-16T17:33:42.717Z,97190.48
2019-03-16T17:36:13.117Z,97185.94
2019-03-16T17:38:43.592Z,97188.55
2019-03-16T17:41:14.059Z,97186.50
2019-03-16T17:43:44.494Z,97181.98
2019-03-16T17:46:14.920Z,97189.09
2019-03-16T17:48:45.326Z,97192.50
2019-03-16T17:51:15.846Z,97190.05
2019-03-16T17:53:47.091Z,97188.45
2019-03-16T17:56:17.398Z,97192.08
2019-03-16T17:58:47.801Z,97188.85
2019-03-16T18:01:18.201Z,97191.59
2019-03-16T18:03:48.653Z,97185.19
2019-03-16T18:06:18.941Z,97191.52
2019-03-16T18:08:54.272Z,97186.48
2019-03-16T18:11:24.531Z,97175.23
2019-03-16T18:13:54.875Z,97182.00
2019-03-16T18:16:25.322Z,97170.80
2019-03-16T18:18:55.645Z,97171.80
2019-03-16T18:21:26.195Z,97171.28
2019-03-16T18:23:56.619Z,97167.02
2019-03-16T18:26:27.125Z,97174.17
2019-03-16T18:28:57.603Z,97164.70
2019-03-16T18:31:28.913Z,97168.47
2019-03-16T18:33:59.244Z,97164.03
2019-03-16T18:36:43.857Z,97164.89
2019-03-16T18:39:14.449Z,97162.80
2019-03-16T18:41:53.855Z,97169.67
2019-03-16T18:44:24.160Z,97169.09
2019-03-16T18:46:54.405Z,97165.63
2019-03-16T18:49:27.797Z,97171.31
2019-03-16T18:52:00.149Z,97175.69
2019-03-16T18:54:30.727Z,97170.46
2019-03-16T18:57:01.134Z,97170.82
2019-03-16T18:59:31.537Z,97163.69
2019-03-16T19:02:01.917Z,97147.28
2019-03-16T19:04:32.213Z,97156.47
2019-03-16T19:07:02.628Z,97151.82
2019-03-16T19:09:33.097Z,97146.16
2019-03-16T19:12:03.589Z,97147.42
2019-03-16T19:14:34.052Z,97141.15
2019-03-16T19:17:23.536Z,97144.84
2019-03-16T19:19:54.242Z,97140.64
2019-03-16T19:22:24.708Z,97138.25
2019-03-16T19:24:55.050Z,97131.90
2019-03-16T19:27:25.417Z,97131.31
2019-03-16T19:29:56.186Z,97127.66
2019-03-16T19:32:33.691Z,97122.55
2019-03-16T19:34:58.650Z,97129.05
2019-03-16T19:37:29.119Z,97120.53
2019-03-16T19:39:59.495Z,97118.80
2019-03-16T19:42:31.035Z,97121.36
2019-03-16T19:45:01.404Z,97114.48
2019-03-16T19:47:31.918Z,97110.91
2019-03-16T19:50:02.435Z,97111.02
2019-03-16T19:52:32.858Z,97098.70
2019-03-16T19:55:03.301Z,97099.94
2019-03-16T19:57:34.713Z,97092.48
2019-03-16T20:00:06.421Z,97085.58
2019-03-16T20:02:46.002Z,97090.55
2019-03-16T20:05:09.524Z,97086.94
2019-03-16T20:07:39.985Z,97073.70
2019-03-16T20:10:13.006Z,97076.73
2019-03-16T20:12:43.433Z,97077.17
2019-03-16T20:15:14.107Z,97075.98
2019-03-16T20:17:44.591Z,97073.40
2019-03-16T20:20:15.131Z,97067.21
2019-03-16T20:22:45.541Z,97071.72
2019-03-16T20:25:16.085Z,97059.20
2019-03-16T20:27:46.517Z,97061.79
2019-03-16T20:30:26.348Z,97064.28
2019-03-16T20:33:02.647Z,97069.81
2019-03-16T20:35:25.993Z,97068.78
2019-03-16T20:37:56.320Z,97061.69
2019-03-16T20:40:26.763Z,97062.59
2019-03-16T20:42:57.194Z,97060.91
2019-03-16T20:45:27.930Z,97066.14
2019-03-16T20:47:58.852Z,97066.83
2019-03-16T20:50:29.417Z,97060.53
2019-03-16T20:52:59.572Z,97061.90
2019-03-16T20:55:29.769Z,97065.50
2019-03-16T20:58:00.168Z,97051.97
2019-03-16T21:03:31.817Z,97048.30
2019-03-16T21:06:02.334Z,97049.31
2019-03-16T21:08:33.437Z,97047.39
2019-03-16T21:11:08.283Z,97052.66
2019-03-16T21:13:38.604Z,97052.37
2019-03-16T21:16:09.145Z,97053.19
2019-03-16T21:18:39.648Z,97049.78
2019-03-16T21:21:10.105Z,97052.96
2019-03-16T21:23:40.588Z,97047.39
2019-03-16T21:26:10.983Z,97049.13
2019-03-16T21:28:41.366Z,97043.02
2019-03-16T21:31:11.835Z,97044.88
2019-03-16T21:33:42.247Z,97045.09
2019-03-16T21:36:12.786Z,97041.38
2019-03-16T21:38:46.816Z,97045.41
2019-03-16T21:41:17.351Z,97044.05
2019-03-16T21:43:47.593Z,97042.18
2019-03-16T21:46:21.403Z,97035.27
2019-03-16T21:48:51.748Z,97033.20
2019-03-16T21:51:22.242Z,97031.09
2019-03-16T21:53:52.715Z,97030.54
2019-03-16T21:56:32.210Z,97030.54
2019-03-16T21:59:02.492Z,97026.27
2019-03-16T22:01:33.110Z,97026.28
2019-03-16T22:04:03.396Z,97017.77
2019-03-16T22:06:33.787Z,97012.45
2019-03-16T22:09:05.175Z,97012.95
2019-03-16T22:11:35.650Z,97001.51
2019-03-16T22:14:06.540Z,97011.63
2019-03-16T22:16:37.053Z,97003.91
2019-03-16T22:19:26.882Z,96994.88
2019-03-16T22:21:57.468Z,96994.84
2019-03-16T22:24:27.711Z,96997.50
2019-03-16T22:26:58.093Z,96998.84
2019-03-16T22:29:28.378Z,96992.97
2019-03-16T22:32:00.712Z,96990.87
2019-03-16T22:34:31.047Z,96990.05
2019-03-16T22:37:01.393Z,96990.34
2019-03-16T22:39:31.596Z,96979.68
2019-03-16T22:42:02.025Z,96978.89
2019-03-16T22:44:32.489Z,96973.30
2019-03-16T22:47:02.892Z,96974.91
2019-03-16T22:49:40.284Z,96962.66
2019-03-16T22:52:10.747Z,96967.17
2019-03-16T22:54:41.141Z,96961.30
2019-03-16T22:57:11.571Z,96960.20
2019-03-16T22:59:43.084Z,96961.00
2019-03-16T23:02:13.976Z,96962.61
2019-03-16T23:04:44.300Z,96954.88
2019-03-16T23:07:14.646Z,96958.86
2019-03-16T23:09:44.951Z,96954.09
2019-03-16T23:12:15.286Z,96952.77
2019-03-16T23:14:45.684Z,96944.73
2019-03-16T23:17:15.972Z,96946.66
2019-03-16T23:19:46.543Z,96940.77
2019-03-16T23:22:17.165Z,96931.44
2019-03-16T23:24:47.432Z,96930.91
2019-03-16T23:27:17.943Z,96922.67
2019-03-16T23:29:48.226Z,96918.94
2019-03-16T23:32:18.674Z,96918.95
2019-03-16T23:34:48.945Z,96914.69
2019-03-16T23:37:19.447Z,96909.28
2019-03-16T23:39:49.672Z,96914.61
2019-03-16T23:42:19.997Z,96907.17
2019-03-16T23:44:50.267Z,96905.31
2019-03-16T23:47:20.744Z,96899.75
2019-03-16T23:49:50.950Z,96896.28
2019-03-16T23:52:21.472Z,96897.07
2019-03-16T23:54:51.852Z,96890.69
2019-03-16T23:57:22.435Z,96891.45
2019-03-16T23:59:52.729Z,96883.94
